createdAt,value
2018-03-20T00:02:10.982Z,77.70
2018-03-20T00:05:14.253Z,77.90
2018-03-20T00:08:17.701Z,78.20
2018-03-20T00:11:21.008Z,78.50
2018-03-20T00:14:25.080Z,77.40
2018-03-20T00:17:28.384Z,77.30
2018-03-20T00:20:31.771Z,78.00
2018-03-20T00:23:35.087Z,78.30
2018-03-20T00:26:38.421Z,78.80
2018-03-20T00:29:41.686Z,77.90
2018-03-20T00:32:44.968Z,77.20
2018-03-20T00:35:48.313Z,77.40
2018-03-20T00:38:52.354Z,78.10
2018-03-20T00:41:55.689Z,78.00
2018-03-20T00:44:58.960Z,78.70
2018-03-20T00:48:02.610Z,78.80
2018-03-20T00:51:05.893Z,79.30
2018-03-20T00:54:09.986Z,80.00
2018-03-20T00:57:13.256Z,79.40
2018-03-20T01:00:17.281Z,79.20
2018-03-20T01:03:20.781Z,80.50
2018-03-20T01:06:24.056Z,79.10
2018-03-20T01:09:28.118Z,79.60
2018-03-20T01:12:32.368Z,79.40
2018-03-20T01:15:35.609Z,79.90
2018-03-20T01:18:39.059Z,80.40
2018-03-20T01:21:42.362Z,80.70
2018-03-20T01:24:45.754Z,81.70
2018-03-20T01:27:49.321Z,80.40
2018-03-20T01:30:52.607Z,80.20
2018-03-20T01:33:55.911Z,80.60
2018-03-20T01:36:59.178Z,80.30
2018-03-20T01:40:02.535Z,80.90
2018-03-20T01:43:05.889Z,81.20
2018-03-20T01:46:09.186Z,80.90
2018-03-20T01:49:12.789Z,80.80
2018-03-20T01:52:16.083Z,81.20
2018-03-20T01:55:19.397Z,80.60
2018-03-20T01:58:22.673Z,81.40
2018-03-20T02:01:25.980Z,81.30
2018-03-20T02:04:29.262Z,81.70
2018-03-20T02:07:33.037Z,81.90
2018-03-20T02:10:36.418Z,82.00
2018-03-20T02:13:40.444Z,82.70
2018-03-20T02:16:43.851Z,83.00
2018-03-20T02:19:47.221Z,81.80
2018-03-20T02:22:50.543Z,81.40
2018-03-20T02:25:54.711Z,82.30
2018-03-20T02:28:58.000Z,82.10
2018-03-20T02:32:01.701Z,81.90
2018-03-20T02:35:05.985Z,81.80
2018-03-20T02:38:09.267Z,81.60
2018-03-20T02:41:12.683Z,82.00
2018-03-20T02:44:15.977Z,81.50
2018-03-20T02:47:19.319Z,82.30
2018-03-20T02:50:22.622Z,81.90
2018-03-20T02:53:25.893Z,82.90
2018-03-20T02:56:30.279Z,83.30
2018-03-20T02:59:33.567Z,83.10
2018-03-20T03:02:37.710Z,83.00
2018-03-20T03:05:41.087Z,82.20
2018-03-20T03:08:44.414Z,82.90
2018-03-20T03:11:47.713Z,82.30
2018-03-20T03:14:51.319Z,83.50
2018-03-20T03:17:54.649Z,83.00
2018-03-20T03:20:58.797Z,83.00
2018-03-20T03:24:02.131Z,82.80
2018-03-20T03:27:05.447Z,82.90
2018-03-20T03:30:08.767Z,82.40
2018-03-20T03:33:12.189Z,82.80
2018-03-20T03:36:15.502Z,82.70
2018-03-20T03:39:18.883Z,82.90
2018-03-20T03:42:23.024Z,83.20
2018-03-20T03:49:01.275Z,82.80
2018-03-20T03:52:04.936Z,82.20
2018-03-20T03:55:09.243Z,82.80
2018-03-20T03:58:12.814Z,82.70
2018-03-20T04:01:16.186Z,81.90
2018-03-20T04:04:20.231Z,82.20
2018-03-20T04:07:23.524Z,82.20
2018-03-20T04:10:27.974Z,83.20
2018-03-20T04:13:31.616Z,83.40
2018-03-20T04:16:35.061Z,84.50
2018-03-20T04:19:38.937Z,83.80
2018-03-20T04:22:42.529Z,83.70
2018-03-20T04:25:45.846Z,83.40
2018-03-20T04:28:49.199Z,83.50
2018-03-20T04:31:52.508Z,83.00
2018-03-20T04:34:55.981Z,82.90
2018-03-20T04:37:59.364Z,83.00
2018-03-20T04:41:03.678Z,83.70
2018-03-20T04:44:07.810Z,83.60
2018-03-20T04:47:11.660Z,81.90
2018-03-20T04:50:15.819Z,81.60
2018-03-20T04:53:19.376Z,80.70
2018-03-20T04:56:23.623Z,82.50
2018-03-20T04:59:26.911Z,82.10
2018-03-20T05:02:30.196Z,82.00
2018-03-20T05:05:33.555Z,79.80
2018-03-20T05:08:36.950Z,79.00
2018-03-20T05:11:40.282Z,78.50
2018-03-20T05:14:43.577Z,78.90
2018-03-20T05:17:46.875Z,78.80
2018-03-20T05:21:00.043Z,79.10
2018-03-20T05:24:04.127Z,79.00
2018-03-20T05:27:08.204Z,80.50
2018-03-20T05:30:11.520Z,80.30
2018-03-20T05:33:14.862Z,80.10
2018-03-20T05:36:18.903Z,79.80
2018-03-20T05:39:22.356Z,79.70
2018-03-20T05:42:27.356Z,77.70
2018-03-20T05:45:30.683Z,77.60
2018-03-20T05:48:39.723Z,77.70
2018-03-20T05:51:43.070Z,77.20
2018-03-20T05:54:46.499Z,77.00
2018-03-20T05:57:49.830Z,76.00
2018-03-20T06:00:53.131Z,76.60
2018-03-20T06:03:56.450Z,77.90
2018-03-20T06:07:00.264Z,76.00
2018-03-20T06:10:03.592Z,74.30
2018-03-20T06:13:06.925Z,72.00
2018-03-20T06:16:11.244Z,71.90
2018-03-20T06:19:15.126Z,71.60
2018-03-20T06:22:18.442Z,72.80
2018-03-20T06:25:22.529Z,71.90
2018-03-20T06:28:25.790Z,71.70
2018-03-20T06:31:29.170Z,72.30
2018-03-20T06:34:32.490Z,70.20
2018-03-20T06:37:35.889Z,70.00
2018-03-20T06:40:39.378Z,70.60
2018-03-20T06:43:42.621Z,69.30
2018-03-20T06:46:45.923Z,70.00
2018-03-20T06:49:49.461Z,68.20
2018-03-20T06:52:53.532Z,70.30
2018-03-20T06:55:57.359Z,70.20
2018-03-20T06:59:00.646Z,69.50
2018-03-20T07:02:04.988Z,68.60
2018-03-20T07:05:08.286Z,68.40
2018-03-20T07:08:12.376Z,68.70
2018-03-20T07:11:15.710Z,68.50
2018-03-20T07:14:19.466Z,69.60
2018-03-20T07:17:22.820Z,72.20
2018-03-20T07:23:36.547Z,69.70
2018-03-20T07:26:39.875Z,69.70
2018-03-20T07:29:43.149Z,69.60
2018-03-20T07:32:46.917Z,69.60
2018-03-20T07:35:50.253Z,69.60
2018-03-20T07:38:54.369Z,70.40
2018-03-20T07:41:57.634Z,70.20
2018-03-20T07:45:00.953Z,71.60
2018-03-20T07:48:04.262Z,74.00
2018-03-20T07:51:07.692Z,75.30
2018-03-20T07:54:11.025Z,75.50
2018-03-20T07:57:14.330Z,75.90
2018-03-20T08:00:17.639Z,74.50
2018-03-20T08:03:20.929Z,75.70
2018-03-20T08:06:24.267Z,75.70
2018-03-20T08:09:27.522Z,75.50
2018-03-20T08:12:30.759Z,77.30
2018-03-20T08:15:34.917Z,78.70
2018-03-20T08:18:38.271Z,78.50
2018-03-20T08:21:42.693Z,77.30
2018-03-20T08:24:46.752Z,78.50
2018-03-20T08:27:50.077Z,78.50
2018-03-20T08:30:53.360Z,77.80
2018-03-20T08:33:56.668Z,78.10
2018-03-20T08:36:59.945Z,76.70
2018-03-20T08:40:03.282Z,77.90
2018-03-20T08:43:06.573Z,77.30
2018-03-20T08:46:09.852Z,77.60
2018-03-20T08:49:13.243Z,77.30
2018-03-20T08:52:16.551Z,77.10
2018-03-20T08:55:19.862Z,78.20
2018-03-20T08:58:23.194Z,77.70
2018-03-20T09:01:27.273Z,77.10
2018-03-20T09:04:30.616Z,77.00
2018-03-20T09:07:33.900Z,77.90
2018-03-20T09:10:38.082Z,78.10
2018-03-20T09:13:41.376Z,77.90
2018-03-20T09:16:44.676Z,78.50
2018-03-20T09:19:47.939Z,77.30
2018-03-20T09:22:51.241Z,77.00
2018-03-20T09:25:54.595Z,77.50
2018-03-20T09:28:58.656Z,78.50
2018-03-20T09:32:02.089Z,78.40
2018-03-20T09:35:06.369Z,79.20
2018-03-20T09:38:09.666Z,78.90
2018-03-20T09:41:12.972Z,80.00
2018-03-20T09:44:16.224Z,80.70
2018-03-20T09:47:20.262Z,81.60
2018-03-20T09:50:23.634Z,81.50
2018-03-20T09:53:26.896Z,81.00
2018-03-20T09:56:30.282Z,82.50
2018-03-20T09:59:33.560Z,81.00
2018-03-20T10:02:37.127Z,80.30
2018-03-20T10:05:40.840Z,80.10
2018-03-20T10:08:44.206Z,79.50
2018-03-20T10:11:48.298Z,80.60
2018-03-20T10:14:51.585Z,80.40
2018-03-20T10:17:54.945Z,80.50
2018-03-20T10:20:58.243Z,81.20
2018-03-20T10:24:01.658Z,81.60
2018-03-20T10:27:05.739Z,81.60
2018-03-20T10:30:09.098Z,81.50
2018-03-20T10:33:12.969Z,81.80
2018-03-20T10:36:16.254Z,81.50
2018-03-20T10:39:20.280Z,81.50
2018-03-20T10:42:24.184Z,81.40
2018-03-20T10:45:28.266Z,81.60
2018-03-20T10:48:31.589Z,81.50
2018-03-20T10:51:35.633Z,82.00
2018-03-20T10:54:39.050Z,81.70
2018-03-20T10:57:42.393Z,81.30
2018-03-20T11:00:49.580Z,82.00
2018-03-20T11:03:53.614Z,82.70
2018-03-20T11:06:56.951Z,82.60
2018-03-20T11:10:00.187Z,82.80
2018-03-20T11:13:04.444Z,83.30
2018-03-20T11:16:08.431Z,83.00
2018-03-20T11:19:12.563Z,83.40
2018-03-20T11:22:16.645Z,83.00
2018-03-20T11:25:20.153Z,82.80
2018-03-20T11:28:23.474Z,82.80
2018-03-20T11:31:26.774Z,83.00
2018-03-20T11:34:30.063Z,83.00
2018-03-20T11:37:34.152Z,84.00
2018-03-20T11:40:38.231Z,83.10
2018-03-20T11:43:41.525Z,83.00
2018-03-20T11:46:45.428Z,83.30
2018-03-20T11:49:48.729Z,83.40
2018-03-20T11:52:52.262Z,83.80
2018-03-20T11:55:55.616Z,83.40
2018-03-20T11:58:58.903Z,84.50
2018-03-20T12:02:02.221Z,83.50
2018-03-20T12:05:05.512Z,83.40
2018-03-20T12:08:20.788Z,83.10
2018-03-20T12:11:25.143Z,83.50
2018-03-20T12:14:28.455Z,82.90
2018-03-20T12:17:31.785Z,82.50
2018-03-20T12:20:35.070Z,82.10
2018-03-20T12:23:39.533Z,81.90
2018-03-20T12:26:42.969Z,81.60
2018-03-20T12:29:47.191Z,81.30
2018-03-20T12:32:50.571Z,81.00
2018-03-20T12:35:54.688Z,81.70
2018-03-20T12:38:58.053Z,81.40
2018-03-20T12:42:01.411Z,81.50
2018-03-20T12:45:04.841Z,82.80
2018-03-20T12:48:08.243Z,84.20
2018-03-20T12:51:11.642Z,84.40
2018-03-20T12:54:15.012Z,85.00
2018-03-20T12:57:18.410Z,85.60
2018-03-20T13:00:21.824Z,86.30
2018-03-20T13:03:25.248Z,86.40
2018-03-20T13:06:28.607Z,87.70
2018-03-20T13:09:33.191Z,87.80
2018-03-20T13:12:36.629Z,87.50
2018-03-20T13:15:40.070Z,87.50
2018-03-20T13:18:43.423Z,87.10
2018-03-20T13:21:46.739Z,87.50
2018-03-20T13:24:50.826Z,87.60
2018-03-20T13:27:54.202Z,87.50
2018-03-20T13:30:57.513Z,87.20
2018-03-20T13:34:00.784Z,86.80
2018-03-20T13:37:04.866Z,86.30
2018-03-20T13:40:08.188Z,85.70
2018-03-20T13:43:11.887Z,85.70
2018-03-20T13:46:15.340Z,86.50
2018-03-20T13:49:18.979Z,85.50
2018-03-20T13:52:22.598Z,85.10
2018-03-20T13:55:25.980Z,85.20
2018-03-20T13:58:29.426Z,85.40
2018-03-20T14:01:32.851Z,85.30
2018-03-20T14:04:36.241Z,84.90
2018-03-20T14:07:39.593Z,84.60
2018-03-20T14:10:43.154Z,84.90
2018-03-20T14:13:46.656Z,85.40
2018-03-20T14:16:50.859Z,85.40
2018-03-20T14:19:54.224Z,85.20
2018-03-20T14:22:57.597Z,84.80
2018-03-20T14:26:00.957Z,83.50
2018-03-20T14:29:04.492Z,82.70
2018-03-20T14:32:07.867Z,82.40
2018-03-20T14:35:12.141Z,80.30
2018-03-20T14:38:15.525Z,79.90
2018-03-20T14:41:19.066Z,80.40
2018-03-20T14:44:22.510Z,79.10
2018-03-20T14:47:26.374Z,79.50
2018-03-20T14:50:29.932Z,79.10
2018-03-20T14:53:33.305Z,78.70
2018-03-20T14:56:39.562Z,79.30
2018-03-20T14:59:44.245Z,78.60
2018-03-20T15:02:47.646Z,78.70
2018-03-20T15:05:50.954Z,78.40
2018-03-20T15:08:54.403Z,78.80
2018-03-20T15:11:58.593Z,77.60
2018-03-20T15:15:02.225Z,77.40
2018-03-20T15:18:05.677Z,76.60
2018-03-20T15:21:09.020Z,77.90
2018-03-20T15:24:13.152Z,77.60
2018-03-20T15:27:16.625Z,77.40
2018-03-20T15:30:20.810Z,77.70
2018-03-20T15:33:25.001Z,78.10
2018-03-20T15:36:28.437Z,78.00
2018-03-20T15:39:32.000Z,77.70
2018-03-20T15:42:35.658Z,77.30
2018-03-20T15:48:48.684Z,78.00
2018-03-20T15:51:52.160Z,77.70
2018-03-20T15:54:55.532Z,77.50
2018-03-20T15:57:59.106Z,77.60
2018-03-20T16:01:02.591Z,78.00
2018-03-20T16:04:06.719Z,77.60
2018-03-20T16:07:10.907Z,77.40
2018-03-20T16:10:14.230Z,76.30
2018-03-20T16:13:17.692Z,77.40
2018-03-20T16:16:21.112Z,77.10
2018-03-20T16:19:24.446Z,76.90
2018-03-20T16:22:27.991Z,77.50
2018-03-20T16:25:31.388Z,77.70
2018-03-20T16:28:34.820Z,78.10
2018-03-20T16:31:38.165Z,77.10
2018-03-20T16:34:41.737Z,78.10
2018-03-20T16:37:45.834Z,77.60
2018-03-20T16:40:49.232Z,77.30
2018-03-20T16:43:52.502Z,77.30
2018-03-20T16:46:56.590Z,77.50
2018-03-20T16:50:00.727Z,76.80
2018-03-20T16:53:04.088Z,76.70
2018-03-20T16:56:08.026Z,76.80
2018-03-20T16:59:12.191Z,77.70
2018-03-20T17:02:16.036Z,77.70
2018-03-20T17:05:19.744Z,80.90
2018-03-20T17:08:23.986Z,79.50
2018-03-20T17:11:27.374Z,80.10
2018-03-20T17:14:30.828Z,79.50
2018-03-20T17:17:34.261Z,81.70
2018-03-20T17:20:37.728Z,81.10
2018-03-20T17:23:41.034Z,81.60
2018-03-20T17:26:44.467Z,82.10
2018-03-20T17:29:48.500Z,82.20
2018-03-20T17:32:52.647Z,82.00
2018-03-20T17:35:57.133Z,82.10
2018-03-20T17:39:00.440Z,81.70
2018-03-20T17:42:03.925Z,81.60
2018-03-20T17:45:07.254Z,83.20
2018-03-20T17:48:10.527Z,83.60
2018-03-20T17:51:13.899Z,85.10
2018-03-20T17:54:17.178Z,84.60
2018-03-20T17:57:21.075Z,85.80
2018-03-20T18:00:24.427Z,85.00
2018-03-20T18:03:27.813Z,85.20
2018-03-20T18:06:31.138Z,86.00
2018-03-20T18:09:34.438Z,87.00
2018-03-20T18:12:38.575Z,87.70
2018-03-20T18:15:43.189Z,87.30
2018-03-20T18:18:47.332Z,87.80
2018-03-20T18:21:50.753Z,87.50
2018-03-20T18:24:54.147Z,87.30
2018-03-20T18:27:57.610Z,87.00
2018-03-20T18:31:00.890Z,86.70
2018-03-20T18:34:04.218Z,86.30
2018-03-20T18:37:07.489Z,86.60
2018-03-20T18:40:11.532Z,87.90
2018-03-20T18:43:14.882Z,87.80
2018-03-20T18:46:18.247Z,88.10
2018-03-20T18:49:21.524Z,88.50
2018-03-20T18:52:24.865Z,88.30
2018-03-20T18:55:28.208Z,87.40
2018-03-20T18:58:32.510Z,88.00
2018-03-20T19:01:35.978Z,87.80
2018-03-20T19:04:40.551Z,87.80
2018-03-20T19:07:44.089Z,88.50
2018-03-20T19:10:47.793Z,88.40
2018-03-20T19:13:51.146Z,88.80
2018-03-20T19:16:54.599Z,89.80
2018-03-20T19:19:58.835Z,89.40
2018-03-20T19:23:02.992Z,89.30
2018-03-20T19:26:07.106Z,89.10
2018-03-20T19:29:10.403Z,88.90
2018-03-20T19:32:14.045Z,89.20
2018-03-20T19:35:17.549Z,89.50
2018-03-20T19:38:22.042Z,89.60
2018-03-20T19:41:26.112Z,89.20
2018-03-20T19:44:30.208Z,88.10
2018-03-20T19:47:33.566Z,88.00
2018-03-20T19:50:36.873Z,88.00
2018-03-20T19:53:40.135Z,88.20
2018-03-20T19:56:43.472Z,88.30
2018-03-20T19:59:46.767Z,88.10
2018-03-20T20:02:50.044Z,88.20
2018-03-20T20:05:53.535Z,88.60
2018-03-20T20:08:56.841Z,88.50
2018-03-20T20:12:00.168Z,88.60
2018-03-20T20:15:04.394Z,88.30
2018-03-20T20:18:07.704Z,88.10
2018-03-20T20:21:11.805Z,88.20
2018-03-20T20:24:15.913Z,88.10
2018-03-20T20:27:19.408Z,89.00
2018-03-20T20:30:22.716Z,89.40
2018-03-20T20:33:26.078Z,89.70
2018-03-20T20:36:29.498Z,89.80
2018-03-20T20:39:33.685Z,89.90
2018-03-20T20:42:36.981Z,89.80
2018-03-20T20:45:40.397Z,90.20
2018-03-20T20:48:43.832Z,90.30
2018-03-20T20:51:47.176Z,90.00
2018-03-20T20:54:51.564Z,90.00
2018-03-20T20:57:56.262Z,90.10
2018-03-20T21:00:59.787Z,90.10
2018-03-20T21:04:03.942Z,90.20
2018-03-20T21:07:07.313Z,90.10
2018-03-20T21:10:10.643Z,90.20
2018-03-20T21:13:14.082Z,90.00
2018-03-20T21:16:17.421Z,90.00
2018-03-20T21:19:20.807Z,90.20
2018-03-20T21:22:24.279Z,89.70
2018-03-20T21:25:27.654Z,89.50
2018-03-20T21:28:31.675Z,89.20
2018-03-20T21:31:35.114Z,88.40
2018-03-20T21:34:38.735Z,88.80
2018-03-20T21:37:42.053Z,89.20
2018-03-20T21:40:45.418Z,88.50
2018-03-20T21:43:50.047Z,88.90
2018-03-20T21:46:56.132Z,88.80
2018-03-20T21:50:01.845Z,89.00
2018-03-20T21:53:05.251Z,89.00
2018-03-20T21:56:08.664Z,88.70
2018-03-20T21:59:12.022Z,88.70
2018-03-20T22:02:15.326Z,88.30
2018-03-20T22:05:18.937Z,88.10
2018-03-20T22:08:22.327Z,87.80
2018-03-20T22:11:25.638Z,87.40
2018-03-20T22:14:29.068Z,87.20
2018-03-20T22:17:32.463Z,88.00
2018-03-20T22:20:35.809Z,87.90
2018-03-20T22:23:39.506Z,87.10
2018-03-20T22:26:43.539Z,87.20
2018-03-20T22:29:47.010Z,87.30
2018-03-20T22:32:51.438Z,88.00
2018-03-20T22:35:54.853Z,88.40
2018-03-20T22:38:58.270Z,88.50
2018-03-20T22:42:01.677Z,88.00
2018-03-20T22:45:05.043Z,88.20
2018-03-20T22:51:18.087Z,87.90
2018-03-20T22:54:21.537Z,88.20
2018-03-20T22:57:25.864Z,88.30
2018-03-20T23:00:33.255Z,88.40
2018-03-20T23:03:37.402Z,88.20
2018-03-20T23:06:40.759Z,88.50
2018-03-20T23:09:44.076Z,88.50
2018-03-20T23:12:48.168Z,88.40
2018-03-20T23:15:52.231Z,88.60
2018-03-20T23:18:55.535Z,88.40
2018-03-20T23:21:58.890Z,88.00
2018-03-20T23:25:02.359Z,88.30
2018-03-20T23:28:05.658Z,88.40
2018-03-20T23:31:09.092Z,88.70
2018-03-20T23:34:12.654Z,88.50
2018-03-20T23:37:15.974Z,88.20
2018-03-20T23:40:20.096Z,88.70
2018-03-20T23:43:23.793Z,88.30
2018-03-20T23:46:27.570Z,88.90
2018-03-20T23:49:31.378Z,88.60
2018-03-20T23:52:35.848Z,88.80
2018-03-20T23:55:40.585Z,88.60
2018-03-20T23:58:44.473Z,88.60
